Time;durP1;ratioP1;P1;durP2;ratioP2;P2;SDS_P1;SDS_P2;PMS_P1;PMS_P2;Temp;Humidity;BMP_temperature;BMP_pressure;BME280_temperature;BME280_humidity;BME280_pressure;Samples;Min_cycle;Max_cycle;Signal;HPM_P1;HPM_P2
2022/05/06 00:01:32;;;;;;;7.10;5.83;;;;;;;;;;5072729;28;20397;-55
2022/05/06 00:03:58;;;;;;;12.10;7.47;;;;;;;;;;5073388;28;20420;-56
2022/05/06 00:06:24;;;;;;;17.83;7.20;;;;;;;;;;5073225;28;20409;-56
2022/05/06 00:08:50;;;;;;;9.37;6.80;;;;;;;;;;5072713;28;20409;-55
2022/05/06 00:11:16;;;;;;;10.40;6.43;;;;;;;;;;5072651;28;20938;-56
2022/05/06 00:13:42;;;;;;;12.00;7.17;;;;;;;;;;5073253;28;20468;-56
2022/05/06 00:16:08;;;;;;;15.70;6.43;;;;;;;;;;5072880;28;20426;-55
2022/05/06 00:18:35;;;;;;;9.47;7.40;;;;;;;;;;5072471;28;20397;-55
2022/05/06 00:21:01;;;;;;;8.50;6.83;;;;;;;;;;5071760;28;20401;-55
2022/05/06 00:23:27;;;;;;;10.03;7.30;;;;;;;;;;5072079;28;20431;-55
2022/05/06 00:25:53;;;;;;;7.20;6.33;;;;;;;;;;5071875;28;20902;-55
2022/05/06 00:28:19;;;;;;;8.93;6.20;;;;;;;;;;5072763;28;20814;-56
2022/05/06 00:30:45;;;;;;;9.30;6.27;;;;;;;;;;5072614;28;20480;-56
2022/05/06 00:33:11;;;;;;;13.53;6.27;;;;;;;;;;5072462;28;20464;-56
2022/05/06 00:35:37;;;;;;;8.20;6.10;;;;;;;;;;5072643;28;20405;-55
2022/05/06 00:38:03;;;;;;;9.60;7.07;;;;;;;;;;5071474;28;20392;-56
2022/05/06 00:40:29;;;;;;;11.77;7.33;;;;;;;;;;5071268;28;20772;-56
2022/05/06 00:42:58;;;;;;;12.77;7.80;;;;;;;;;;5070725;28;20420;-55
2022/05/06 00:45:28;;;;;;;12.03;7.10;;;;;;;;;;5072544;28;20426;-56
2022/05/06 00:47:54;;;;;;;12.47;7.90;;;;;;;;;;5072519;28;20824;-56
2022/05/06 00:50:20;;;;;;;17.10;7.30;;;;;;;;;;5072232;28;20875;-56
2022/05/06 00:52:46;;;;;;;11.53;8.20;;;;;;;;;;5071690;28;20460;-56
2022/05/06 00:55:12;;;;;;;13.40;7.70;;;;;;;;;;5072206;28;20420;-55
2022/05/06 00:57:39;;;;;;;13.63;7.67;;;;;;;;;;5072079;28;20412;-56
2022/05/06 01:03:00;;;;;;;10.50;7.83;;;;;;;;;;5071788;28;20527;-56
2022/05/06 01:05:27;;;;;;;9.87;7.87;;;;;;;;;;5075153;28;20451;-56
2022/05/06 01:07:53;;;;;;;10.70;8.90;;;;;;;;;;5075444;28;20408;-56
2022/05/06 01:10:20;;;;;;;19.33;8.87;;;;;;;;;;5075198;28;20400;-56
2022/05/06 01:12:46;;;;;;;15.13;9.37;;;;;;;;;;5074461;28;20491;-55
2022/05/06 01:15:21;;;;;;;17.67;9.47;;;;;;;;;;5075465;28;20450;-56
2022/05/06 01:17:47;;;;;;;14.93;8.87;;;;;;;;;;5075640;28;20769;-56
2022/05/06 01:20:17;;;;;;;11.90;7.83;;;;;;;;;;5075112;28;20429;-56
2022/05/06 01:22:44;;;;;;;11.07;7.50;;;;;;;;;;5074316;28;20448;-56
2022/05/06 01:25:10;;;;;;;11.30;7.97;;;;;;;;;;5075243;28;20422;-56
2022/05/06 01:27:38;;;;;;;24.10;8.03;;;;;;;;;;5075024;28;20386;-55
2022/05/06 01:30:04;;;;;;;11.37;8.60;;;;;;;;;;5074752;28;20484;-55
2022/05/06 01:32:31;;;;;;;11.33;7.73;;;;;;;;;;5073923;28;20466;-56
2022/05/06 01:34:59;;;;;;;11.33;8.00;;;;;;;;;;5074789;28;20379;-55
2022/05/06 01:37:26;;;;;;;9.70;7.17;;;;;;;;;;5074466;28;20400;-56
2022/05/06 01:39:55;;;;;;;13.80;7.30;;;;;;;;;;5074507;28;20436;-56
2022/05/06 01:42:21;;;;;;;10.57;8.03;;;;;;;;;;5074003;28;20409;-55
2022/05/06 01:44:48;;;;;;;14.00;7.60;;;;;;;;;;5074465;28;20951;-56
2022/05/06 01:47:19;;;;;;;12.10;9.10;;;;;;;;;;5074606;28;20435;-56
2022/05/06 01:49:46;;;;;;;13.90;8.50;;;;;;;;;;5074250;28;20770;-55
2022/05/06 01:52:18;;;;;;;15.30;8.80;;;;;;;;;;5073667;28;20467;-56
2022/05/06 01:54:46;;;;;;;19.30;9.87;;;;;;;;;;5074323;28;20429;-55
2022/05/06 01:57:12;;;;;;;21.47;9.73;;;;;;;;;;5074324;28;20393;-56
2022/05/06 01:59:40;;;;;;;35.93;11.33;;;;;;;;;;5074038;28;20981;-55
2022/05/06 02:02:06;;;;;;;25.23;11.53;;;;;;;;;;5073674;28;20397;-56
2022/05/06 02:07:16;;;;;;;29.20;13.10;;;;;;;;;;5074438;28;20439;-56
2022/05/06 02:09:42;;;;;;;34.57;13.50;;;;;;;;;;5073901;28;20401;-56
2022/05/06 02:12:10;;;;;;;25.37;12.13;;;;;;;;;;5073076;28;20428;-55
2022/05/06 02:14:36;;;;;;;31.73;12.87;;;;;;;;;;5073775;28;20800;-55
2022/05/06 02:17:02;;;;;;;28.70;12.53;;;;;;;;;;5073912;28;20404;-55
2022/05/06 02:19:28;;;;;;;22.60;12.33;;;;;;;;;;5073533;28;20412;-56
2022/05/06 02:21:54;;;;;;;41.50;13.20;;;;;;;;;;5073079;28;20416;-56
2022/05/06 02:24:20;;;;;;;25.60;10.77;;;;;;;;;;5073539;28;20944;-56
2022/05/06 02:26:46;;;;;;;18.97;10.70;;;;;;;;;;5073640;28;20439;-56
2022/05/06 02:29:12;;;;;;;24.23;10.80;;;;;;;;;;5073838;28;20433;-55
2022/05/06 02:34:23;;;;;;;14.90;9.43;;;;;;;;;;5073241;28;20473;-55
2022/05/06 02:36:49;;;;;;;17.03;10.10;;;;;;;;;;5073539;28;20811;-56
2022/05/06 02:39:16;;;;;;;17.60;10.57;;;;;;;;;;5073368;28;20385;-56
2022/05/06 02:41:42;;;;;;;31.90;16.00;;;;;;;;;;5072867;28;20389;-55
2022/05/06 02:44:08;;;;;;;40.53;14.90;;;;;;;;;;5073299;28;20555;-56
2022/05/06 02:46:35;;;;;;;44.10;16.13;;;;;;;;;;5073183;28;20983;-56
2022/05/06 02:49:01;;;;;;;34.40;15.70;;;;;;;;;;5073137;28;20455;-55
2022/05/06 02:51:28;;;;;;;28.90;14.93;;;;;;;;;;5072372;28;20801;-56
2022/05/06 02:53:56;;;;;;;24.37;13.00;;;;;;;;;;5072789;28;20531;-55
2022/05/06 02:56:22;;;;;;;27.70;12.97;;;;;;;;;;5073204;28;20397;-56
2022/05/06 02:58:48;;;;;;;27.00;13.33;;;;;;;;;;5073009;28;20756;-55
2022/05/06 03:01:14;;;;;;;23.13;13.50;;;;;;;;;;5072471;28;20401;-54
2022/05/06 03:03:40;;;;;;;19.60;12.30;;;;;;;;;;5072723;28;20420;-55
2022/05/06 03:06:06;;;;;;;27.77;12.70;;;;;;;;;;5072737;28;20784;-56
2022/05/06 03:08:32;;;;;;;22.33;12.03;;;;;;;;;;5072959;28;20419;-55
2022/05/06 03:11:00;;;;;;;19.80;10.83;;;;;;;;;;5072315;28;20435;-55
2022/05/06 03:13:26;;;;;;;15.37;10.60;;;;;;;;;;5072798;28;20451;-56
2022/05/06 03:15:52;;;;;;;18.80;11.30;;;;;;;;;;5072853;28;20400;-55
2022/05/06 03:18:18;;;;;;;19.93;12.30;;;;;;;;;;5072715;28;20401;-55
2022/05/06 03:20:44;;;;;;;35.70;16.00;;;;;;;;;;5072096;28;20396;-56
2022/05/06 03:23:11;;;;;;;33.23;15.80;;;;;;;;;;5072301;28;20941;-55
2022/05/06 03:25:37;;;;;;;37.37;15.13;;;;;;;;;;5072186;28;20762;-56
2022/05/06 03:28:07;;;;;;;25.63;14.40;;;;;;;;;;5072554;28;20511;-56
2022/05/06 03:30:38;;;;;;;23.33;13.03;;;;;;;;;;5072452;28;20760;-55
2022/05/06 03:33:04;;;;;;;22.17;14.10;;;;;;;;;;5072198;28;20866;-55
2022/05/06 03:35:32;;;;;;;25.77;12.77;;;;;;;;;;5072548;28;20404;-55
2022/05/06 03:37:58;;;;;;;21.53;10.93;;;;;;;;;;5072704;28;20397;-55
2022/05/06 03:40:24;;;;;;;18.57;11.70;;;;;;;;;;5072470;28;20412;-56
2022/05/06 03:42:50;;;;;;;19.20;11.43;;;;;;;;;;5071849;28;20516;-56
2022/05/06 03:45:16;;;;;;;17.83;11.13;;;;;;;;;;5072630;28;20442;-55
2022/05/06 03:47:42;;;;;;;14.87;10.73;;;;;;;;;;5072540;28;20411;-56
2022/05/06 03:52:53;;;;;;;18.50;10.50;;;;;;;;;;5071802;28;20532;-56
2022/05/06 03:55:20;;;;;;;17.27;10.30;;;;;;;;;;5072550;28;20963;-55
2022/05/06 03:57:46;;;;;;;20.30;11.40;;;;;;;;;;5072428;28;20418;-55
2022/05/06 04:00:14;;;;;;;21.40;10.13;;;;;;;;;;5072617;28;20403;-55
2022/05/06 04:02:40;;;;;;;17.90;11.43;;;;;;;;;;5071782;28;20434;-56
2022/05/06 04:05:07;;;;;;;21.27;11.00;;;;;;;;;;5072162;28;20404;-56
2022/05/06 04:07:33;;;;;;;21.97;11.97;;;;;;;;;;5072269;28;20491;-55
2022/05/06 04:10:00;;;;;;;21.70;10.60;;;;;;;;;;5072397;28;20508;-55
2022/05/06 04:12:26;;;;;;;20.70;10.40;;;;;;;;;;5071672;28;20536;-55
2022/05/06 04:14:52;;;;;;;21.67;10.60;;;;;;;;;;5072441;28;20427;-56
2022/05/06 04:17:20;;;;;;;26.30;10.23;;;;;;;;;;5072455;28;20396;-55
2022/05/06 04:25:16;;;;;;;18.50;10.07;;;;;;;;;;5072383;28;20907;-54
2022/05/06 04:27:42;;;;;;;16.03;9.60;;;;;;;;;;5072146;28;20401;-55
2022/05/06 04:30:12;;;;;;;21.43;10.23;;;;;;;;;;5072108;28;20429;-55
2022/05/06 04:32:38;;;;;;;23.13;9.60;;;;;;;;;;5071488;28;20464;-56
2022/05/06 04:35:06;;;;;;;24.90;11.00;;;;;;;;;;5072161;28;20396;-56
2022/05/06 04:37:32;;;;;;;29.23;12.67;;;;;;;;;;5073293;28;20397;-56
2022/05/06 04:39:58;;;;;;;25.80;13.87;;;;;;;;;;5075662;28;20491;-56
2022/05/06 04:42:24;;;;;;;22.77;12.23;;;;;;;;;;5075668;28;21041;-55
2022/05/06 04:44:52;;;;;;;22.43;12.63;;;;;;;;;;5076248;28;20397;-55
2022/05/06 04:47:18;;;;;;;24.50;11.67;;;;;;;;;;5075944;28;20475;-55
2022/05/06 04:49:44;;;;;;;26.60;12.80;;;;;;;;;;5076010;28;20411;-55
2022/05/06 04:52:10;;;;;;;20.50;12.23;;;;;;;;;;5075147;28;20797;-56
2022/05/06 04:54:36;;;;;;;21.43;12.17;;;;;;;;;;5075393;28;20468;-55
2022/05/06 04:57:04;;;;;;;19.83;12.10;;;;;;;;;;5075650;28;20500;-55
2022/05/06 04:59:31;;;;;;;18.73;10.87;;;;;;;;;;5075719;28;20411;-55
2022/05/06 05:01:57;;;;;;;24.40;12.63;;;;;;;;;;5075011;28;20399;-56
2022/05/06 05:04:28;;;;;;;18.03;11.13;;;;;;;;;;5075331;28;20416;-54
2022/05/06 05:06:57;;;;;;;16.93;10.43;;;;;;;;;;5075511;28;20809;-56
2022/05/06 05:09:23;;;;;;;17.73;10.60;;;;;;;;;;5075170;28;20415;-55
2022/05/06 05:11:52;;;;;;;21.33;10.53;;;;;;;;;;5074552;28;20412;-55
2022/05/06 05:14:18;;;;;;;17.03;10.30;;;;;;;;;;5075266;28;20455;-56
2022/05/06 05:16:44;;;;;;;17.00;9.23;;;;;;;;;;5075403;28;20404;-56
2022/05/06 05:19:11;;;;;;;17.57;10.00;;;;;;;;;;5075241;28;20436;-56
2022/05/06 05:21:37;;;;;;;14.53;9.90;;;;;;;;;;5074493;28;20431;-55
2022/05/06 05:24:04;;;;;;;17.30;9.30;;;;;;;;;;5075130;28;20936;-55
2022/05/06 05:26:30;;;;;;;15.43;9.53;;;;;;;;;;5075133;28;20458;-55
2022/05/06 05:28:56;;;;;;;20.83;9.77;;;;;;;;;;5075126;28;20884;-55
2022/05/06 05:31:23;;;;;;;17.00;11.00;;;;;;;;;;5074455;28;20412;-56
2022/05/06 05:33:49;;;;;;;18.90;11.00;;;;;;;;;;5075208;28;20475;-55
2022/05/06 05:36:15;;;;;;;20.87;10.90;;;;;;;;;;5074848;28;20397;-55
2022/05/06 05:38:41;;;;;;;21.63;11.40;;;;;;;;;;5074452;28;20397;-56
2022/05/06 05:41:08;;;;;;;17.37;10.73;;;;;;;;;;5074279;28;20795;-55
2022/05/06 05:49:03;;;;;;;26.13;14.07;;;;;;;;;;5074313;28;20434;-55
2022/05/06 05:51:29;;;;;;;34.13;16.63;;;;;;;;;;5073194;28;20420;-54
2022/05/06 05:53:56;;;;;;;25.73;14.60;;;;;;;;;;5073845;28;20487;-55
2022/05/06 05:56:22;;;;;;;25.20;14.80;;;;;;;;;;5073918;28;20398;-55
2022/05/06 05:58:50;;;;;;;34.20;15.93;;;;;;;;;;5073760;28;20403;-55
2022/05/06 06:01:17;;;;;;;32.57;16.10;;;;;;;;;;5073081;28;20749;-55
2022/05/06 06:03:43;;;;;;;28.00;16.10;;;;;;;;;;5073624;28;20427;-54
2022/05/06 06:06:09;;;;;;;38.70;17.10;;;;;;;;;;5073565;28;20789;-55
2022/05/06 06:08:35;;;;;;;27.23;14.30;;;;;;;;;;5073515;28;20383;-55
2022/05/06 06:11:01;;;;;;;29.13;14.50;;;;;;;;;;5072916;28;20404;-55
2022/05/06 06:13:31;;;;;;;28.60;15.10;;;;;;;;;;5073123;28;20463;-54
2022/05/06 06:15:57;;;;;;;29.07;15.13;;;;;;;;;;5071751;28;20423;-54
2022/05/06 06:18:26;;;;;;;29.30;15.33;;;;;;;;;;5073617;28;20400;-55
2022/05/06 06:20:54;;;;;;;29.13;16.60;;;;;;;;;;5072606;28;20393;-54
2022/05/06 06:23:20;;;;;;;31.30;15.37;;;;;;;;;;5072249;28;20507;-55
2022/05/06 06:25:48;;;;;;;31.90;16.03;;;;;;;;;;5071587;28;20418;-55
2022/05/06 06:28:14;;;;;;;28.67;15.23;;;;;;;;;;5072526;28;20413;-56
2022/05/06 06:30:40;;;;;;;24.90;14.50;;;;;;;;;;5072735;28;20426;-55
2022/05/06 06:33:07;;;;;;;24.17;13.53;;;;;;;;;;5071962;28;20462;-54
2022/05/06 06:35:33;;;;;;;28.00;15.13;;;;;;;;;;5073067;28;20427;-55
2022/05/06 06:38:00;;;;;;;19.67;12.90;;;;;;;;;;5072760;28;20429;-55
2022/05/06 06:40:26;;;;;;;13.73;9.70;;;;;;;;;;5072434;28;20426;-56
2022/05/06 06:42:53;;;;;;;11.57;9.00;;;;;;;;;;5071766;28;20413;-55
2022/05/06 06:45:19;;;;;;;9.73;8.40;;;;;;;;;;5072585;28;20408;-55
2022/05/06 06:47:45;;;;;;;17.03;8.17;;;;;;;;;;5072139;28;20399;-55
2022/05/06 06:50:13;;;;;;;14.93;10.20;;;;;;;;;;5072389;28;20493;-54
2022/05/06 06:52:39;;;;;;;11.07;8.30;;;;;;;;;;5071482;28;20436;-55
2022/05/06 06:55:05;;;;;;;15.00;7.67;;;;;;;;;;5072315;28;20447;-55
2022/05/06 06:57:31;;;;;;;10.57;7.60;;;;;;;;;;5071900;28;20426;-55
2022/05/06 06:59:57;;;;;;;10.73;8.03;;;;;;;;;;5071842;28;20482;-56
2022/05/06 07:02:23;;;;;;;13.13;8.67;;;;;;;;;;5071518;28;20412;-55
2022/05/06 07:04:51;;;;;;;10.83;8.10;;;;;;;;;;5072023;28;20474;-55
2022/05/06 07:12:46;;;;;;;16.30;8.60;;;;;;;;;;5062299;28;20463;-55
2022/05/06 07:15:12;;;;;;;13.70;9.07;;;;;;;;;;5072246;28;20416;-56
2022/05/06 07:17:38;;;;;;;12.53;7.97;;;;;;;;;;5065357;28;20441;-56
2022/05/06 07:20:05;;;;;;;13.90;9.03;;;;;;;;;;5070424;28;20755;-56
2022/05/06 07:22:32;;;;;;;12.60;8.57;;;;;;;;;;5070904;28;20466;-56
2022/05/06 07:24:58;;;;;;;12.50;9.23;;;;;;;;;;5071977;28;20535;-55
2022/05/06 07:27:25;;;;;;;11.60;8.73;;;;;;;;;;5071774;28;20453;-55
2022/05/06 07:29:52;;;;;;;11.60;8.87;;;;;;;;;;5071741;28;20752;-56
2022/05/06 07:32:18;;;;;;;12.57;9.17;;;;;;;;;;5071223;28;20410;-55
2022/05/06 07:34:44;;;;;;;10.47;7.83;;;;;;;;;;5071613;28;20404;-55
2022/05/06 07:37:10;;;;;;;11.13;7.73;;;;;;;;;;5071786;28;20374;-55
2022/05/06 07:39:37;;;;;;;10.67;8.10;;;;;;;;;;5071931;28;20377;-56
2022/05/06 07:42:03;;;;;;;10.50;7.70;;;;;;;;;;5072460;28;20467;-56
2022/05/06 07:44:30;;;;;;;12.40;8.27;;;;;;;;;;5073873;28;20423;-56
2022/05/06 07:46:56;;;;;;;10.60;7.30;;;;;;;;;;5073722;28;20430;-56
2022/05/06 07:49:23;;;;;;;13.60;8.50;;;;;;;;;;5073087;28;20420;-56
2022/05/06 07:51:49;;;;;;;17.47;8.70;;;;;;;;;;5071909;28;20910;-56
2022/05/06 07:54:15;;;;;;;11.00;8.23;;;;;;;;;;5072311;28;20463;-57
2022/05/06 07:56:41;;;;;;;11.73;7.87;;;;;;;;;;5072191;28;20466;-56
2022/05/06 07:59:07;;;;;;;11.03;7.43;;;;;;;;;;5071682;28;20447;-56
2022/05/06 08:04:33;;;;;;;8.87;6.63;;;;;;;;;;5071258;28;20418;-56
2022/05/06 08:07:00;;;;;;;11.43;7.00;;;;;;;;;;5051610;28;20400;-57
2022/05/06 08:09:26;;;;;;;8.10;6.57;;;;;;;;;;5052287;28;20878;-56
2022/05/06 08:11:52;;;;;;;6.43;5.30;;;;;;;;;;5072654;28;20416;-56
2022/05/06 08:14:19;;;;;;;7.23;5.60;;;;;;;;;;5075393;28;20520;-56
2022/05/06 08:16:45;;;;;;;8.73;5.50;;;;;;;;;;5075476;28;20401;-56
2022/05/06 08:19:11;;;;;;;6.73;5.10;;;;;;;;;;5075679;28;20435;-55
2022/05/06 08:21:39;;;;;;;9.37;5.37;;;;;;;;;;5074299;28;20416;-56
2022/05/06 08:24:05;;;;;;;6.80;5.07;;;;;;;;;;5074880;28;20423;-55
2022/05/06 08:26:33;;;;;;;9.83;4.93;;;;;;;;;;5074651;28;20408;-55
2022/05/06 08:28:59;;;;;;;10.93;5.10;;;;;;;;;;5075065;28;20567;-57
2022/05/06 08:31:25;;;;;;;7.03;4.60;;;;;;;;;;5071533;28;20891;-57
2022/05/06 08:33:51;;;;;;;7.17;5.40;;;;;;;;;;5074086;28;20464;-57
2022/05/06 08:36:17;;;;;;;9.50;5.57;;;;;;;;;;5074941;28;20414;-56
2022/05/06 08:38:44;;;;;;;6.90;6.23;;;;;;;;;;5074342;28;20463;-56
2022/05/06 08:41:11;;;;;;;7.00;4.63;;;;;;;;;;5073065;28;20459;-56
2022/05/06 08:43:40;;;;;;;9.30;6.23;;;;;;;;;;5074582;28;20458;-56
2022/05/06 08:51:40;;;;;;;5.97;5.37;;;;;;;;;;5061400;28;20519;-55
2022/05/06 08:54:07;;;;;;;6.27;4.27;;;;;;;;;;5074160;28;20458;-55
2022/05/06 08:56:33;;;;;;;5.20;4.70;;;;;;;;;;5073869;28;20422;-57
2022/05/06 08:58:59;;;;;;;11.03;6.20;;;;;;;;;;5061532;28;20518;-55
2022/05/06 09:01:25;;;;;;;7.47;6.47;;;;;;;;;;5071698;28;20420;-55
2022/05/06 09:03:52;;;;;;;10.60;8.30;;;;;;;;;;5073821;28;20951;-55
2022/05/06 09:06:24;;;;;;;7.57;5.90;;;;;;;;;;5072998;28;20481;-56
2022/05/06 09:08:51;;;;;;;8.93;6.23;;;;;;;;;;5072766;28;20462;-56
2022/05/06 09:11:18;;;;;;;10.13;6.30;;;;;;;;;;5073502;28;20407;-57
2022/05/06 09:13:49;;;;;;;9.30;7.20;;;;;;;;;;5074327;28;20464;-55
2022/05/06 09:19:15;;;;;;;11.33;8.90;;;;;;;;;;5073954;28;20445;-56
2022/05/06 09:21:59;;;;;;;9.00;7.50;;;;;;;;;;5073075;28;20403;-55
2022/05/06 09:24:27;;;;;;;14.47;7.73;;;;;;;;;;5073588;28;20446;-56
2022/05/06 09:27:02;;;;;;;11.87;8.17;;;;;;;;;;5074443;28;20410;-57
2022/05/06 09:29:31;;;;;;;8.47;7.67;;;;;;;;;;5074815;28;20408;-56
2022/05/06 09:32:18;;;;;;;14.10;9.00;;;;;;;;;;5074489;28;20453;-56
2022/05/06 09:34:46;;;;;;;13.23;8.37;;;;;;;;;;5073687;28;20438;-55
2022/05/06 09:37:12;;;;;;;9.30;6.20;;;;;;;;;;5074904;28;20393;-56
2022/05/06 09:39:40;;;;;;;8.07;6.80;;;;;;;;;;5074960;28;20515;-57
2022/05/06 09:42:07;;;;;;;14.73;8.43;;;;;;;;;;5074689;28;20427;-56
2022/05/06 09:44:33;;;;;;;10.90;9.27;;;;;;;;;;5075211;28;20410;-56
2022/05/06 09:47:12;;;;;;;17.13;7.13;;;;;;;;;;5074284;28;20397;-57
2022/05/06 09:49:39;;;;;;;7.70;6.50;;;;;;;;;;5073571;28;20499;-56
2022/05/06 09:52:09;;;;;;;11.33;5.87;;;;;;;;;;5073135;28;20856;-56
2022/05/06 09:54:35;;;;;;;9.53;7.13;;;;;;;;;;5073180;28;20999;-56
2022/05/06 09:57:05;;;;;;;8.23;7.43;;;;;;;;;;5073215;28;20912;-56
2022/05/06 09:59:31;;;;;;;12.77;8.13;;;;;;;;;;5073348;28;20826;-56
2022/05/06 10:01:57;;;;;;;12.40;10.27;;;;;;;;;;5073055;28;20488;-56
2022/05/06 10:04:23;;;;;;;6.90;6.20;;;;;;;;;;5073313;28;21052;-56
2022/05/06 10:06:50;;;;;;;12.80;6.90;;;;;;;;;;5073624;28;20891;-56
2022/05/06 10:09:19;;;;;;;11.70;9.87;;;;;;;;;;5073158;28;20416;-55
2022/05/06 10:11:45;;;;;;;11.87;9.03;;;;;;;;;;5072941;28;20408;-56
2022/05/06 10:14:13;;;;;;;10.27;8.00;;;;;;;;;;5072855;28;20456;-55
2022/05/06 10:16:40;;;;;;;9.33;8.43;;;;;;;;;;5072885;28;20824;-55
2022/05/06 10:19:28;;;;;;;7.73;6.90;;;;;;;;;;5073432;28;20401;-57
2022/05/06 10:21:57;;;;;;;10.60;8.50;;;;;;;;;;5072473;28;20764;-56
2022/05/06 10:24:23;;;;;;;8.80;7.40;;;;;;;;;;5073252;28;20491;-56
2022/05/06 10:26:52;;;;;;;9.40;7.60;;;;;;;;;;5072999;28;20524;-56
2022/05/06 10:32:25;;;;;;;9.40;6.33;;;;;;;;;;5072125;28;20457;-57
2022/05/06 10:35:05;;;;;;;7.77;5.50;;;;;;;;;;5070249;28;20940;-55
2022/05/06 10:37:57;;;;;;;12.30;8.43;;;;;;;;;;5072349;28;20412;-55
2022/05/06 10:40:23;;;;;;;8.50;7.60;;;;;;;;;;5071469;28;20486;-57
2022/05/06 10:42:49;;;;;;;8.10;6.40;;;;;;;;;;5071645;28;20916;-56
2022/05/06 10:45:32;;;;;;;8.77;7.47;;;;;;;;;;5065980;28;20546;-56
2022/05/06 10:47:58;;;;;;;12.20;10.90;;;;;;;;;;5070604;28;20412;-56
2022/05/06 10:50:29;;;;;;;7.07;6.30;;;;;;;;;;5072365;28;20428;-56
2022/05/06 10:52:55;;;;;;;9.20;8.07;;;;;;;;;;5071437;28;20556;-56
2022/05/06 10:55:22;;;;;;;8.77;7.87;;;;;;;;;;5072673;28;20758;-57
2022/05/06 10:57:55;;;;;;;12.23;8.87;;;;;;;;;;5074288;28;20404;-57
2022/05/06 11:00:22;;;;;;;13.83;9.67;;;;;;;;;;5073574;28;21011;-57
2022/05/06 11:02:48;;;;;;;8.20;6.73;;;;;;;;;;5071771;28;20423;-57
2022/05/06 11:05:16;;;;;;;15.70;9.87;;;;;;;;;;5072225;28;20752;-56
2022/05/06 11:07:43;;;;;;;13.17;9.87;;;;;;;;;;5072420;28;20533;-56
2022/05/06 11:10:09;;;;;;;18.67;11.20;;;;;;;;;;5071942;28;20408;-56
2022/05/06 11:12:41;;;;;;;10.00;9.00;;;;;;;;;;5071611;28;20460;-55
2022/05/06 11:15:09;;;;;;;11.97;9.60;;;;;;;;;;5071878;28;20468;-56
2022/05/06 11:17:35;;;;;;;11.83;10.33;;;;;;;;;;5072209;28;20484;-56
2022/05/06 11:20:14;;;;;;;11.23;10.03;;;;;;;;;;5070725;28;20450;-57
2022/05/06 11:22:48;;;;;;;12.50;10.33;;;;;;;;;;5052887;28;20421;-57
2022/05/06 11:25:15;;;;;;;11.10;9.80;;;;;;;;;;5057738;28;20415;-57
2022/05/06 11:27:41;;;;;;;9.40;8.50;;;;;;;;;;5074023;28;20400;-57
2022/05/06 11:30:09;;;;;;;11.10;8.73;;;;;;;;;;5073647;28;20753;-57
2022/05/06 11:32:36;;;;;;;8.73;7.83;;;;;;;;;;5072207;28;20464;-57
2022/05/06 11:35:06;;;;;;;10.57;8.60;;;;;;;;;;5072145;28;20408;-56
2022/05/06 11:37:34;;;;;;;11.10;8.10;;;;;;;;;;5072158;28;20396;-55
2022/05/06 11:40:18;;;;;;;10.13;8.83;;;;;;;;;;5071247;28;20420;-57
2022/05/06 11:42:44;;;;;;;13.13;10.10;;;;;;;;;;5070804;28;20441;-56
2022/05/06 11:48:26;;;;;;;10.73;9.63;;;;;;;;;;5071655;28;20426;-57
2022/05/06 11:51:02;;;;;;;12.20;10.03;;;;;;;;;;5050165;28;20413;-55
2022/05/06 11:53:31;;;;;;;13.37;11.70;;;;;;;;;;5053930;28;20464;-56
2022/05/06 11:55:58;;;;;;;11.60;9.50;;;;;;;;;;5070872;28;20511;-56
2022/05/06 11:58:24;;;;;;;10.87;9.77;;;;;;;;;;5071538;28;20393;-57
2022/05/06 12:00:54;;;;;;;11.70;9.80;;;;;;;;;;5071110;28;20415;-56
2022/05/06 12:03:21;;;;;;;12.83;10.80;;;;;;;;;;5071666;28;20499;-56
2022/05/06 12:05:58;;;;;;;11.47;10.27;;;;;;;;;;5071636;28;20423;-56
2022/05/06 12:08:30;;;;;;;10.77;9.67;;;;;;;;;;5070588;28;20395;-56
2022/05/06 12:11:07;;;;;;;8.70;7.63;;;;;;;;;;5061316;28;20424;-57
2022/05/06 12:13:41;;;;;;;8.47;7.67;;;;;;;;;;5071198;28;20470;-56
2022/05/06 12:16:09;;;;;;;8.47;7.57;;;;;;;;;;5071118;28;20444;-56
2022/05/06 12:18:35;;;;;;;6.90;6.33;;;;;;;;;;5069561;28;20392;-57
2022/05/06 12:21:01;;;;;;;7.07;6.37;;;;;;;;;;5068985;28;20419;-56
2022/05/06 12:23:28;;;;;;;6.87;6.17;;;;;;;;;;5071085;28;20416;-56
2022/05/06 12:25:55;;;;;;;12.13;6.90;;;;;;;;;;5070424;28;20789;-57
2022/05/06 12:28:21;;;;;;;7.67;6.97;;;;;;;;;;5070640;28;20479;-57
2022/05/06 12:30:55;;;;;;;6.37;5.33;;;;;;;;;;5070139;28;20434;-57
2022/05/06 12:33:22;;;;;;;8.37;7.40;;;;;;;;;;5070806;28;20479;-57
2022/05/06 12:35:57;;;;;;;6.37;5.77;;;;;;;;;;5071247;28;20467;-57
2022/05/06 12:38:24;;;;;;;6.70;5.50;;;;;;;;;;5071507;28;20398;-57
2022/05/06 12:40:50;;;;;;;9.00;6.80;;;;;;;;;;5070636;28;20932;-56
2022/05/06 12:43:17;;;;;;;7.57;6.67;;;;;;;;;;5071050;28;20454;-56
2022/05/06 12:45:55;;;;;;;6.80;6.10;;;;;;;;;;5071020;28;20532;-56
2022/05/06 12:51:06;;;;;;;7.93;7.20;;;;;;;;;;5068445;28;20452;-56
2022/05/06 12:53:33;;;;;;;19.73;7.30;;;;;;;;;;5070877;28;20518;-56
2022/05/06 12:56:00;;;;;;;7.27;6.53;;;;;;;;;;5071803;28;20495;-56
2022/05/06 12:58:29;;;;;;;16.17;11.80;;;;;;;;;;5072124;28;20877;-56
2022/05/06 13:00:57;;;;;;;8.80;7.57;;;;;;;;;;5074317;28;20451;-56
2022/05/06 13:03:24;;;;;;;13.20;11.87;;;;;;;;;;5074812;28;20745;-56
2022/05/06 13:05:50;;;;;;;12.27;11.07;;;;;;;;;;5074149;28;20475;-57
2022/05/06 13:08:16;;;;;;;10.90;8.27;;;;;;;;;;5074256;28;20421;-56
2022/05/06 13:10:42;;;;;;;8.47;7.33;;;;;;;;;;5074577;28;20426;-56
2022/05/06 13:13:08;;;;;;;13.27;7.97;;;;;;;;;;5074158;28;21051;-56
2022/05/06 13:15:34;;;;;;;9.33;7.30;;;;;;;;;;5074173;28;20418;-56
2022/05/06 13:18:00;;;;;;;10.73;6.50;;;;;;;;;;5074434;28;20442;-56
2022/05/06 13:20:26;;;;;;;7.87;6.53;;;;;;;;;;5073888;28;20423;-56
2022/05/06 13:22:52;;;;;;;8.77;7.87;;;;;;;;;;5073724;28;20428;-57
2022/05/06 13:25:18;;;;;;;10.10;7.40;;;;;;;;;;5074305;28;20968;-56
2022/05/06 13:27:45;;;;;;;10.13;7.73;;;;;;;;;;5074429;28;20489;-56
2022/05/06 13:30:12;;;;;;;8.43;7.40;;;;;;;;;;5073894;28;20424;-56
2022/05/06 13:32:38;;;;;;;8.50;7.70;;;;;;;;;;5073576;28;20424;-56
2022/05/06 13:35:05;;;;;;;9.07;8.17;;;;;;;;;;5074092;28;20782;-56
2022/05/06 13:37:31;;;;;;;9.50;7.70;;;;;;;;;;5074077;28;20393;-56
2022/05/06 13:39:57;;;;;;;8.80;7.80;;;;;;;;;;5074099;28;20507;-56
2022/05/06 13:42:23;;;;;;;7.47;6.77;;;;;;;;;;5073661;28;20441;-56
2022/05/06 13:44:50;;;;;;;8.27;7.30;;;;;;;;;;5074137;28;20388;-56
2022/05/06 13:47:16;;;;;;;7.37;6.70;;;;;;;;;;5073315;28;20409;-56
2022/05/06 13:49:43;;;;;;;12.73;10.17;;;;;;;;;;5070307;28;20820;-56
2022/05/06 13:52:09;;;;;;;10.03;9.03;;;;;;;;;;5074499;28;20822;-57
2022/05/06 13:54:35;;;;;;;8.57;7.77;;;;;;;;;;5073050;28;20456;-56
2022/05/06 13:59:47;;;;;;;8.50;7.67;;;;;;;;;;5071550;28;20458;-56
2022/05/06 14:02:13;;;;;;;9.13;8.23;;;;;;;;;;5069695;28;20440;-56
2022/05/06 14:04:41;;;;;;;10.77;8.87;;;;;;;;;;5066738;28;22143;-56
2022/05/06 14:07:08;;;;;;;11.53;8.93;;;;;;;;;;5056653;28;20404;-56
2022/05/06 14:09:34;;;;;;;10.17;8.83;;;;;;;;;;5070880;28;20507;-56
2022/05/06 14:12:00;;;;;;;9.30;8.00;;;;;;;;;;5071370;28;20482;-56
2022/05/06 14:14:26;;;;;;;10.10;8.10;;;;;;;;;;5072635;28;20470;-56
2022/05/06 14:16:52;;;;;;;15.00;10.87;;;;;;;;;;5073272;28;20397;-56
2022/05/06 14:19:20;;;;;;;13.70;10.57;;;;;;;;;;5073457;28;20407;-55
2022/05/06 14:21:46;;;;;;;11.20;8.00;;;;;;;;;;5069648;28;20404;-56
2022/05/06 14:24:13;;;;;;;11.37;8.10;;;;;;;;;;5073267;28;20463;-56
2022/05/06 14:26:40;;;;;;;12.57;10.43;;;;;;;;;;5073380;28;20415;-56
2022/05/06 14:29:06;;;;;;;12.73;11.50;;;;;;;;;;5073181;28;20491;-56
2022/05/06 14:31:32;;;;;;;12.10;10.90;;;;;;;;;;5072585;28;20492;-56
2022/05/06 14:33:58;;;;;;;12.70;11.23;;;;;;;;;;5072852;28;20459;-56
2022/05/06 14:36:25;;;;;;;15.47;10.77;;;;;;;;;;5072833;28;20396;-56
2022/05/06 14:38:51;;;;;;;12.70;10.23;;;;;;;;;;5071246;28;20404;-56
2022/05/06 14:41:17;;;;;;;12.13;10.73;;;;;;;;;;5071385;28;20734;-56
2022/05/06 14:43:43;;;;;;;13.43;11.20;;;;;;;;;;5071702;28;20420;-56
2022/05/06 14:46:09;;;;;;;11.63;9.67;;;;;;;;;;5071639;28;20469;-56
2022/05/06 14:48:42;;;;;;;11.87;10.60;;;;;;;;;;5064968;28;20416;-56
2022/05/06 14:51:08;;;;;;;14.03;11.23;;;;;;;;;;5060013;28;20412;-56
2022/05/06 14:53:35;;;;;;;15.07;11.43;;;;;;;;;;5062650;28;20534;-56
2022/05/06 14:56:01;;;;;;;15.40;11.27;;;;;;;;;;5061249;28;20405;-56
2022/05/06 14:58:27;;;;;;;14.20;10.03;;;;;;;;;;5063060;28;20401;-56
2022/05/06 15:00:54;;;;;;;12.37;9.77;;;;;;;;;;5061529;28;20413;-57
2022/05/06 15:03:20;;;;;;;13.20;11.37;;;;;;;;;;5056640;28;21002;-56
2022/05/06 15:05:46;;;;;;;12.97;9.33;;;;;;;;;;5062244;28;20499;-56
2022/05/06 15:08:12;;;;;;;9.03;8.13;;;;;;;;;;5062256;28;20423;-56
2022/05/06 15:10:38;;;;;;;9.00;8.10;;;;;;;;;;5078227;28;20413;-56
2022/05/06 15:13:05;;;;;;;12.17;10.10;;;;;;;;;;5071632;28;20456;-56
2022/05/06 15:15:31;;;;;;;14.73;11.67;;;;;;;;;;5072275;28;20437;-56
2022/05/06 15:19:23;;;;;;;13.77;10.77;;;;;;;;;;5072301;28;20412;-56
2022/05/06 15:20:43;;;;;;;13.30;9.40;;;;;;;;;;5071527;28;20503;-57